sensor_id;sensor_type;location;lat;lon;timestamp;P1;durP1;ratioP1;P2;durP2;ratioP2
69081;SDS011;56184;51.986;5.760;2023-01-09T00:00:19;2.22;;;0.98;;
69081;SDS011;56184;51.986;5.760;2023-01-09T00:02:48;2.72;;;1.13;;
69081;SDS011;56184;51.986;5.760;2023-01-09T00:05:32;5.10;;;1.17;;
69081;SDS011;56184;51.986;5.760;2023-01-09T00:07:58;4.38;;;1.08;;
69081;SDS011;56184;51.986;5.760;2023-01-09T00:10:23;3.30;;;1.30;;
69081;SDS011;56184;51.986;5.760;2023-01-09T00:12:49;2.85;;;1.00;;
69081;SDS011;56184;51.986;5.760;2023-01-09T00:15:22;1.48;;;0.85;;
69081;SDS011;56184;51.986;5.760;2023-01-09T00:17:48;2.47;;;1.05;;
69081;SDS011;56184;51.986;5.760;2023-01-09T00:20:25;3.13;;;1.00;;
69081;SDS011;56184;51.986;5.760;2023-01-09T00:22:54;1.80;;;1.10;;
69081;SDS011;56184;51.986;5.760;2023-01-09T00:25:19;2.78;;;1.30;;
69081;SDS011;56184;51.986;5.760;2023-01-09T00:27:49;1.23;;;0.75;;
69081;SDS011;56184;51.986;5.760;2023-01-09T00:30:21;1.52;;;0.75;;
69081;SDS011;56184;51.986;5.760;2023-01-09T00:32:47;4.25;;;0.80;;
69081;SDS011;56184;51.986;5.760;2023-01-09T00:35:25;0.93;;;0.60;;
69081;SDS011;56184;51.986;5.760;2023-01-09T00:37:52;2.95;;;0.80;;
69081;SDS011;56184;51.986;5.760;2023-01-09T00:40:29;1.23;;;0.60;;
69081;SDS011;56184;51.986;5.760;2023-01-09T00:42:54;1.52;;;0.75;;
69081;SDS011;56184;51.986;5.760;2023-01-09T00:45:22;1.85;;;0.60;;
69081;SDS011;56184;51.986;5.760;2023-01-09T00:50:50;2.20;;;0.52;;
69081;SDS011;56184;51.986;5.760;2023-01-09T00:53:19;0.90;;;0.50;;
69081;SDS011;56184;51.986;5.760;2023-01-09T00:55:54;0.43;;;0.43;;
69081;SDS011;56184;51.986;5.760;2023-01-09T00:58:23;0.95;;;0.63;;
69081;SDS011;56184;51.986;5.760;2023-01-09T01:00:51;0.50;;;0.50;;
69081;SDS011;56184;51.986;5.760;2023-01-09T01:03:41;1.88;;;0.77;;
69081;SDS011;56184;51.986;5.760;2023-01-09T01:06:26;1.00;;;0.63;;
69081;SDS011;56184;51.986;5.760;2023-01-09T01:09:23;2.83;;;0.70;;
69081;SDS011;56184;51.986;5.760;2023-01-09T01:11:48;0.70;;;0.70;;
69081;SDS011;56184;51.986;5.760;2023-01-09T01:14:20;1.48;;;0.70;;
69081;SDS011;56184;51.986;5.760;2023-01-09T01:16:58;2.03;;;0.70;;
69081;SDS011;56184;51.986;5.760;2023-01-09T01:19:27;1.73;;;0.70;;
69081;SDS011;56184;51.986;5.760;2023-01-09T01:21:55;0.65;;;0.65;;
69081;SDS011;56184;51.986;5.760;2023-01-09T01:24:21;0.68;;;0.65;;
69081;SDS011;56184;51.986;5.760;2023-01-09T01:26:47;1.67;;;0.88;;
69081;SDS011;56184;51.986;5.760;2023-01-09T01:29:23;1.58;;;0.82;;
69081;SDS011;56184;51.986;5.760;2023-01-09T01:31:55;2.17;;;0.75;;
69081;SDS011;56184;51.986;5.760;2023-01-09T01:34:28;2.58;;;1.00;;
69081;SDS011;56184;51.986;5.760;2023-01-09T01:39:23;0.80;;;0.70;;
69081;SDS011;56184;51.986;5.760;2023-01-09T01:41:48;0.80;;;0.80;;
69081;SDS011;56184;51.986;5.760;2023-01-09T01:53:04;0.90;;;0.90;;
69081;SDS011;56184;51.986;5.760;2023-01-09T01:55:44;0.87;;;0.87;;
69081;SDS011;56184;51.986;5.760;2023-01-09T01:58:15;2.38;;;1.00;;
69081;SDS011;56184;51.986;5.760;2023-01-09T02:00:51;1.83;;;1.13;;
69081;SDS011;56184;51.986;5.760;2023-01-09T02:03:20;1.80;;;1.10;;
69081;SDS011;56184;51.986;5.760;2023-01-09T02:05:50;5.43;;;1.35;;
69081;SDS011;56184;51.986;5.760;2023-01-09T02:08:19;1.58;;;1.02;;
69081;SDS011;56184;51.986;5.760;2023-01-09T02:10:51;1.77;;;0.90;;
69081;SDS011;56184;51.986;5.760;2023-01-09T02:13:27;1.45;;;0.93;;
69081;SDS011;56184;51.986;5.760;2023-01-09T02:18:46;1.20;;;1.00;;
69081;SDS011;56184;51.986;5.760;2023-01-09T02:21:49;1.60;;;1.00;;
69081;SDS011;56184;51.986;5.760;2023-01-09T02:24:34;3.78;;;1.10;;
69081;SDS011;56184;51.986;5.760;2023-01-09T02:38:37;1.67;;;1.00;;
69081;SDS011;56184;51.986;5.760;2023-01-09T02:41:10;2.67;;;1.05;;
69081;SDS011;56184;51.986;5.760;2023-01-09T02:43:37;2.22;;;0.95;;
69081;SDS011;56184;51.986;5.760;2023-01-09T02:46:04;2.22;;;1.13;;
69081;SDS011;56184;51.986;5.760;2023-01-09T02:48:30;2.05;;;1.00;;
69081;SDS011;56184;51.986;5.760;2023-01-09T02:51:09;3.20;;;1.30;;
69081;SDS011;56184;51.986;5.760;2023-01-09T03:00:28;3.35;;;1.30;;
69081;SDS011;56184;51.986;5.760;2023-01-09T03:02:57;2.63;;;1.30;;
69081;SDS011;56184;51.986;5.760;2023-01-09T03:05:40;2.75;;;1.25;;
69081;SDS011;56184;51.986;5.760;2023-01-09T03:08:20;4.05;;;1.20;;
69081;SDS011;56184;51.986;5.760;2023-01-09T03:10:51;4.00;;;1.20;;
69081;SDS011;56184;51.986;5.760;2023-01-09T03:13:32;4.38;;;1.10;;
69081;SDS011;56184;51.986;5.760;2023-01-09T03:16:08;3.17;;;1.20;;
69081;SDS011;56184;51.986;5.760;2023-01-09T03:18:38;1.90;;;1.48;;
69081;SDS011;56184;51.986;5.760;2023-01-09T03:21:05;1.95;;;1.05;;
69081;SDS011;56184;51.986;5.760;2023-01-09T03:23:46;6.72;;;1.20;;
69081;SDS011;56184;51.986;5.760;2023-01-09T03:26:16;2.30;;;1.33;;
69081;SDS011;56184;51.986;5.760;2023-01-09T03:28:48;4.63;;;1.15;;
69081;SDS011;56184;51.986;5.760;2023-01-09T03:31:15;2.38;;;1.20;;
69081;SDS011;56184;51.986;5.760;2023-01-09T03:33:41;3.10;;;1.50;;
69081;SDS011;56184;51.986;5.760;2023-01-09T03:36:07;5.85;;;1.30;;
69081;SDS011;56184;51.986;5.760;2023-01-09T03:38:33;4.28;;;1.30;;
69081;SDS011;56184;51.986;5.760;2023-01-09T03:41:01;4.68;;;1.17;;
69081;SDS011;56184;51.986;5.760;2023-01-09T03:43:27;4.00;;;1.33;;
69081;SDS011;56184;51.986;5.760;2023-01-09T03:45:52;2.50;;;1.52;;
69081;SDS011;56184;51.986;5.760;2023-01-09T03:48:18;5.30;;;1.30;;
69081;SDS011;56184;51.986;5.760;2023-01-09T03:50:44;4.50;;;1.30;;
69081;SDS011;56184;51.986;5.760;2023-01-09T03:53:12;3.42;;;1.25;;
69081;SDS011;56184;51.986;5.760;2023-01-09T03:55:51;3.03;;;1.10;;
69081;SDS011;56184;51.986;5.760;2023-01-09T03:58:18;4.47;;;1.17;;
69081;SDS011;56184;51.986;5.760;2023-01-09T04:00:55;1.77;;;1.13;;
69081;SDS011;56184;51.986;5.760;2023-01-09T04:03:28;2.65;;;1.13;;
69081;SDS011;56184;51.986;5.760;2023-01-09T04:05:54;4.35;;;1.23;;
69081;SDS011;56184;51.986;5.760;2023-01-09T04:08:37;2.85;;;1.00;;
69081;SDS011;56184;51.986;5.760;2023-01-09T04:11:08;1.70;;;1.20;;
69081;SDS011;56184;51.986;5.760;2023-01-09T04:13:37;2.97;;;1.27;;
69081;SDS011;56184;51.986;5.760;2023-01-09T04:16:09;2.47;;;1.02;;
69081;SDS011;56184;51.986;5.760;2023-01-09T04:18:36;2.63;;;0.90;;
69081;SDS011;56184;51.986;5.760;2023-01-09T04:21:05;4.20;;;1.33;;
69081;SDS011;56184;51.986;5.760;2023-01-09T04:23:34;1.90;;;1.20;;
69081;SDS011;56184;51.986;5.760;2023-01-09T04:25:59;2.25;;;1.00;;
69081;SDS011;56184;51.986;5.760;2023-01-09T04:31:01;4.88;;;1.23;;
69081;SDS011;56184;51.986;5.760;2023-01-09T04:33:29;4.90;;;1.48;;
69081;SDS011;56184;51.986;5.760;2023-01-09T04:35:58;3.15;;;1.35;;
69081;SDS011;56184;51.986;5.760;2023-01-09T04:38:23;3.92;;;1.20;;
69081;SDS011;56184;51.986;5.760;2023-01-09T04:40:51;2.58;;;1.17;;
69081;SDS011;56184;51.986;5.760;2023-01-09T04:43:17;4.60;;;1.17;;
69081;SDS011;56184;51.986;5.760;2023-01-09T04:45:45;5.38;;;1.33;;
69081;SDS011;56184;51.986;5.760;2023-01-09T04:48:22;5.20;;;1.10;;
69081;SDS011;56184;51.986;5.760;2023-01-09T04:50:50;4.43;;;1.15;;
69081;SDS011;56184;51.986;5.760;2023-01-09T04:53:18;3.67;;;1.38;;
69081;SDS011;56184;51.986;5.760;2023-01-09T04:55:49;7.35;;;1.95;;
69081;SDS011;56184;51.986;5.760;2023-01-09T04:58:21;4.80;;;1.38;;
69081;SDS011;56184;51.986;5.760;2023-01-09T05:00:47;7.38;;;1.38;;
69081;SDS011;56184;51.986;5.760;2023-01-09T05:03:12;1.52;;;1.23;;
69081;SDS011;56184;51.986;5.760;2023-01-09T05:05:47;3.28;;;1.50;;
69081;SDS011;56184;51.986;5.760;2023-01-09T05:08:19;5.10;;;1.40;;
69081;SDS011;56184;51.986;5.760;2023-01-09T05:10:44;1.63;;;1.20;;
69081;SDS011;56184;51.986;5.760;2023-01-09T05:15:50;5.75;;;1.45;;
69081;SDS011;56184;51.986;5.760;2023-01-09T05:18:19;7.60;;;1.63;;
69081;SDS011;56184;51.986;5.760;2023-01-09T05:20:47;5.50;;;1.30;;
69081;SDS011;56184;51.986;5.760;2023-01-09T05:23:13;4.20;;;1.50;;
69081;SDS011;56184;51.986;5.760;2023-01-09T05:25:40;5.50;;;1.88;;
69081;SDS011;56184;51.986;5.760;2023-01-09T05:28:05;3.85;;;1.95;;
69081;SDS011;56184;51.986;5.760;2023-01-09T05:30:31;6.00;;;1.80;;
69081;SDS011;56184;51.986;5.760;2023-01-09T05:32:59;4.40;;;1.67;;
69081;SDS011;56184;51.986;5.760;2023-01-09T05:35:25;4.38;;;1.73;;
69081;SDS011;56184;51.986;5.760;2023-01-09T05:37:50;7.63;;;1.75;;
69081;SDS011;56184;51.986;5.760;2023-01-09T05:40:21;6.30;;;1.58;;
69081;SDS011;56184;51.986;5.760;2023-01-09T05:42:56;4.55;;;1.63;;
69081;SDS011;56184;51.986;5.760;2023-01-09T05:45:25;5.28;;;1.52;;
69081;SDS011;56184;51.986;5.760;2023-01-09T05:47:51;4.32;;;1.63;;
69081;SDS011;56184;51.986;5.760;2023-01-09T05:50:22;7.40;;;2.13;;
69081;SDS011;56184;51.986;5.760;2023-01-09T05:52:50;3.95;;;1.38;;
69081;SDS011;56184;51.986;5.760;2023-01-09T05:55:25;7.88;;;1.40;;
69081;SDS011;56184;51.986;5.760;2023-01-09T05:57:53;6.30;;;1.30;;
69081;SDS011;56184;51.986;5.760;2023-01-09T06:00:24;4.63;;;1.20;;
69081;SDS011;56184;51.986;5.760;2023-01-09T06:02:56;4.47;;;1.40;;
69081;SDS011;56184;51.986;5.760;2023-01-09T06:05:30;8.32;;;1.70;;
69081;SDS011;56184;51.986;5.760;2023-01-09T06:07:55;6.45;;;1.40;;
69081;SDS011;56184;51.986;5.760;2023-01-09T06:10:21;5.38;;;1.42;;
69081;SDS011;56184;51.986;5.760;2023-01-09T06:12:47;2.85;;;1.02;;
69081;SDS011;56184;51.986;5.760;2023-01-09T06:15:17;8.05;;;1.85;;
69081;SDS011;56184;51.986;5.760;2023-01-09T06:17:53;3.60;;;1.30;;
69081;SDS011;56184;51.986;5.760;2023-01-09T06:20:25;5.90;;;1.60;;
69081;SDS011;56184;51.986;5.760;2023-01-09T06:22:50;5.80;;;1.50;;
69081;SDS011;56184;51.986;5.760;2023-01-09T06:25:17;6.85;;;1.55;;
69081;SDS011;56184;51.986;5.760;2023-01-09T06:27:52;4.00;;;1.08;;
69081;SDS011;56184;51.986;5.760;2023-01-09T06:30:23;4.22;;;1.50;;
69081;SDS011;56184;51.986;5.760;2023-01-09T06:32:49;4.47;;;1.40;;
69081;SDS011;56184;51.986;5.760;2023-01-09T06:35:15;8.82;;;1.75;;
69081;SDS011;56184;51.986;5.760;2023-01-09T06:37:47;6.50;;;1.45;;
69081;SDS011;56184;51.986;5.760;2023-01-09T06:40:14;10.93;;;1.83;;
69081;SDS011;56184;51.986;5.760;2023-01-09T06:42:46;4.40;;;1.15;;
69081;SDS011;56184;51.986;5.760;2023-01-09T06:45:15;8.65;;;1.33;;
69081;SDS011;56184;51.986;5.760;2023-01-09T06:47:50;10.23;;;1.58;;
69081;SDS011;56184;51.986;5.760;2023-01-09T06:50:19;4.45;;;1.13;;
69081;SDS011;56184;51.986;5.760;2023-01-09T06:52:47;10.20;;;1.45;;
69081;SDS011;56184;51.986;5.760;2023-01-09T06:55:13;8.45;;;1.70;;
69081;SDS011;56184;51.986;5.760;2023-01-09T06:57:58;5.85;;;0.90;;
69081;SDS011;56184;51.986;5.760;2023-01-09T07:00:24;6.13;;;1.85;;
69081;SDS011;56184;51.986;5.760;2023-01-09T07:02:51;7.00;;;1.10;;
69081;SDS011;56184;51.986;5.760;2023-01-09T07:05:16;7.20;;;1.33;;
69081;SDS011;56184;51.986;5.760;2023-01-09T07:07:47;4.55;;;1.60;;
69081;SDS011;56184;51.986;5.760;2023-01-09T07:10:22;7.00;;;1.10;;
69081;SDS011;56184;51.986;5.760;2023-01-09T07:12:53;8.07;;;1.27;;
69081;SDS011;56184;51.986;5.760;2023-01-09T07:15:19;6.68;;;1.52;;
69081;SDS011;56184;51.986;5.760;2023-01-09T07:17:49;7.97;;;1.27;;
69081;SDS011;56184;51.986;5.760;2023-01-09T07:20:18;10.52;;;1.70;;
69081;SDS011;56184;51.986;5.760;2023-01-09T07:22:50;8.65;;;1.40;;
69081;SDS011;56184;51.986;5.760;2023-01-09T07:25:31;5.13;;;1.30;;
69081;SDS011;56184;51.986;5.760;2023-01-09T07:27:59;8.20;;;1.65;;
69081;SDS011;56184;51.986;5.760;2023-01-09T07:33:22;10.35;;;1.40;;
69081;SDS011;56184;51.986;5.760;2023-01-09T07:36:02;7.30;;;1.30;;
69081;SDS011;56184;51.986;5.760;2023-01-09T07:38:37;4.97;;;1.10;;
69081;SDS011;56184;51.986;5.760;2023-01-09T07:41:09;9.57;;;1.40;;
69081;SDS011;56184;51.986;5.760;2023-01-09T07:43:35;8.50;;;1.50;;
69081;SDS011;56184;51.986;5.760;2023-01-09T07:46:14;9.90;;;1.25;;
69081;SDS011;56184;51.986;5.760;2023-01-09T07:48:40;8.90;;;1.77;;
69081;SDS011;56184;51.986;5.760;2023-01-09T07:51:05;4.55;;;1.23;;
69081;SDS011;56184;51.986;5.760;2023-01-09T07:53:31;3.33;;;1.50;;
69081;SDS011;56184;51.986;5.760;2023-01-09T07:55:56;8.32;;;1.45;;
69081;SDS011;56184;51.986;5.760;2023-01-09T07:58:22;11.25;;;1.55;;
69081;SDS011;56184;51.986;5.760;2023-01-09T08:00:49;5.57;;;1.40;;
69081;SDS011;56184;51.986;5.760;2023-01-09T08:03:15;4.43;;;1.40;;
69081;SDS011;56184;51.986;5.760;2023-01-09T08:05:40;8.85;;;1.95;;
69081;SDS011;56184;51.986;5.760;2023-01-09T08:08:06;9.13;;;1.73;;
69081;SDS011;56184;51.986;5.760;2023-01-09T08:10:31;7.55;;;1.73;;
69081;SDS011;56184;51.986;5.760;2023-01-09T08:12:57;5.20;;;1.67;;
69081;SDS011;56184;51.986;5.760;2023-01-09T08:15:23;5.80;;;1.50;;
69081;SDS011;56184;51.986;5.760;2023-01-09T08:17:48;5.10;;;1.27;;
69081;SDS011;56184;51.986;5.760;2023-01-09T08:20:14;4.20;;;1.25;;
69081;SDS011;56184;51.986;5.760;2023-01-09T08:22:41;9.60;;;1.55;;
69081;SDS011;56184;51.986;5.760;2023-01-09T08:25:08;9.25;;;1.80;;
69081;SDS011;56184;51.986;5.760;2023-01-09T08:27:34;2.83;;;1.63;;
69081;SDS011;56184;51.986;5.760;2023-01-09T08:30:00;11.50;;;1.80;;
69081;SDS011;56184;51.986;5.760;2023-01-09T08:32:25;5.32;;;1.83;;
69081;SDS011;56184;51.986;5.760;2023-01-09T08:34:51;10.07;;;1.98;;
69081;SDS011;56184;51.986;5.760;2023-01-09T08:37:17;8.57;;;2.20;;
69081;SDS011;56184;51.986;5.760;2023-01-09T08:39:42;9.07;;;2.30;;
69081;SDS011;56184;51.986;5.760;2023-01-09T08:42:08;6.70;;;2.00;;
69081;SDS011;56184;51.986;5.760;2023-01-09T08:44:52;4.95;;;2.20;;
69081;SDS011;56184;51.986;5.760;2023-01-09T08:47:36;5.13;;;2.40;;
69081;SDS011;56184;51.986;5.760;2023-01-09T08:50:02;5.57;;;1.98;;
69081;SDS011;56184;51.986;5.760;2023-01-09T08:52:28;6.45;;;2.20;;
69081;SDS011;56184;51.986;5.760;2023-01-09T08:54:54;9.55;;;2.30;;
69081;SDS011;56184;51.986;5.760;2023-01-09T08:57:20;5.22;;;1.73;;
69081;SDS011;56184;51.986;5.760;2023-01-09T08:59:46;4.57;;;1.88;;
69081;SDS011;56184;51.986;5.760;2023-01-09T09:02:18;6.15;;;2.00;;
69081;SDS011;56184;51.986;5.760;2023-01-09T09:04:52;4.70;;;2.03;;
69081;SDS011;56184;51.986;5.760;2023-01-09T09:07:20;2.70;;;1.75;;
69081;SDS011;56184;51.986;5.760;2023-01-09T09:09:54;5.22;;;1.55;;
69081;SDS011;56184;51.986;5.760;2023-01-09T09:12:21;2.72;;;1.85;;
69081;SDS011;56184;51.986;5.760;2023-01-09T09:14:47;3.83;;;1.70;;
69081;SDS011;56184;51.986;5.760;2023-01-09T09:17:31;5.75;;;2.03;;
69081;SDS011;56184;51.986;5.760;2023-01-09T09:19:57;5.60;;;2.10;;
69081;SDS011;56184;51.986;5.760;2023-01-09T09:22:23;6.05;;;2.30;;
69081;SDS011;56184;51.986;5.760;2023-01-09T09:24:49;6.30;;;2.30;;
69081;SDS011;56184;51.986;5.760;2023-01-09T09:27:18;3.58;;;2.38;;
69081;SDS011;56184;51.986;5.760;2023-01-09T09:29:50;4.25;;;2.50;;
69081;SDS011;56184;51.986;5.760;2023-01-09T09:32:16;5.90;;;2.42;;
69081;SDS011;56184;51.986;5.760;2023-01-09T09:34:47;6.93;;;2.67;;
69081;SDS011;56184;51.986;5.760;2023-01-09T09:37:22;4.35;;;2.05;;
69081;SDS011;56184;51.986;5.760;2023-01-09T09:39:48;9.65;;;2.65;;
69081;SDS011;56184;51.986;5.760;2023-01-09T09:48:35;8.07;;;2.00;;
69081;SDS011;56184;51.986;5.760;2023-01-09T09:51:08;7.22;;;2.15;;
69081;SDS011;56184;51.986;5.760;2023-01-09T09:56:49;7.57;;;2.47;;
69081;SDS011;56184;51.986;5.760;2023-01-09T09:59:25;5.85;;;2.33;;
69081;SDS011;56184;51.986;5.760;2023-01-09T10:01:54;7.78;;;2.03;;
69081;SDS011;56184;51.986;5.760;2023-01-09T10:04:33;10.90;;;3.10;;
69081;SDS011;56184;51.986;5.760;2023-01-09T10:07:11;7.63;;;1.98;;
69081;SDS011;56184;51.986;5.760;2023-01-09T10:09:53;7.22;;;2.33;;
69081;SDS011;56184;51.986;5.760;2023-01-09T10:12:26;8.38;;;2.50;;
69081;SDS011;56184;51.986;5.760;2023-01-09T10:14:57;4.63;;;2.60;;
69081;SDS011;56184;51.986;5.760;2023-01-09T10:20:32;7.63;;;2.60;;
69081;SDS011;56184;51.986;5.760;2023-01-09T10:38:02;5.15;;;1.88;;
69081;SDS011;56184;51.986;5.760;2023-01-09T10:40:31;3.72;;;1.80;;
69081;SDS011;56184;51.986;5.760;2023-01-09T10:43:27;3.47;;;1.70;;
69081;SDS011;56184;51.986;5.760;2023-01-09T10:46:00;7.82;;;2.00;;
69081;SDS011;56184;51.986;5.760;2023-01-09T10:48:58;4.15;;;2.20;;
69081;SDS011;56184;51.986;5.760;2023-01-09T10:51:36;5.47;;;1.90;;
69081;SDS011;56184;51.986;5.760;2023-01-09T10:54:57;5.47;;;2.05;;
69081;SDS011;56184;51.986;5.760;2023-01-09T10:57:49;5.47;;;1.80;;
69081;SDS011;56184;51.986;5.760;2023-01-09T11:00:22;6.55;;;1.92;;
69081;SDS011;56184;51.986;5.760;2023-01-09T11:06:03;5.65;;;2.13;;
69081;SDS011;56184;51.986;5.760;2023-01-09T11:08:41;4.22;;;1.65;;
69081;SDS011;56184;51.986;5.760;2023-01-09T11:11:29;6.53;;;2.35;;
69081;SDS011;56184;51.986;5.760;2023-01-09T11:14:03;10.07;;;2.10;;
69081;SDS011;56184;51.986;5.760;2023-01-09T11:17:00;2.58;;;1.58;;
69081;SDS011;56184;51.986;5.760;2023-01-09T11:19:30;6.25;;;1.90;;
69081;SDS011;56184;51.986;5.760;2023-01-09T11:22:07;5.07;;;1.70;;
69081;SDS011;56184;51.986;5.760;2023-01-09T11:24:38;5.13;;;2.00;;
69081;SDS011;56184;51.986;5.760;2023-01-09T11:32:33;4.40;;;1.48;;
69081;SDS011;56184;51.986;5.760;2023-01-09T11:35:05;4.40;;;1.55;;
69081;SDS011;56184;51.986;5.760;2023-01-09T11:37:39;3.72;;;1.45;;
69081;SDS011;56184;51.986;5.760;2023-01-09T11:40:05;7.63;;;1.90;;
69081;SDS011;56184;51.986;5.760;2023-01-09T11:42:40;6.88;;;1.88;;
69081;SDS011;56184;51.986;5.760;2023-01-09T11:45:18;10.90;;;1.85;;
69081;SDS011;56184;51.986;5.760;2023-01-09T11:47:44;4.57;;;1.40;;
69081;SDS011;56184;51.986;5.760;2023-01-09T11:50:20;4.63;;;1.65;;
69081;SDS011;56184;51.986;5.760;2023-01-09T11:55:40;6.53;;;1.23;;
69081;SDS011;56184;51.986;5.760;2023-01-09T11:58:09;4.38;;;1.00;;
69081;SDS011;56184;51.986;5.760;2023-01-09T12:06:35;6.30;;;1.75;;
69081;SDS011;56184;51.986;5.760;2023-01-09T12:09:09;6.28;;;1.45;;
69081;SDS011;56184;51.986;5.760;2023-01-09T12:11:51;9.65;;;1.52;;
69081;SDS011;56184;51.986;5.760;2023-01-09T12:25:20;6.10;;;1.20;;
69081;SDS011;56184;51.986;5.760;2023-01-09T12:31:11;7.90;;;2.00;;
69081;SDS011;56184;51.986;5.760;2023-01-09T12:33:58;9.77;;;1.55;;
69081;SDS011;56184;51.986;5.760;2023-01-09T12:39:37;7.38;;;1.80;;
69081;SDS011;56184;51.986;5.760;2023-01-09T12:44:49;10.05;;;1.73;;
69081;SDS011;56184;51.986;5.760;2023-01-09T12:53:54;9.13;;;1.75;;
69081;SDS011;56184;51.986;5.760;2023-01-09T12:56:15;5.45;;;1.48;;
69081;SDS011;56184;51.986;5.760;2023-01-09T13:01:23;10.80;;;1.80;;
69081;SDS011;56184;51.986;5.760;2023-01-09T13:04:14;11.45;;;1.65;;
69081;SDS011;56184;51.986;5.760;2023-01-09T13:06:43;9.90;;;1.70;;
69081;SDS011;56184;51.986;5.760;2023-01-09T13:09:25;6.70;;;1.73;;
69081;SDS011;56184;51.986;5.760;2023-01-09T13:12:01;9.43;;;1.98;;
69081;SDS011;56184;51.986;5.760;2023-01-09T13:17:03;12.85;;;1.60;;
69081;SDS011;56184;51.986;5.760;2023-01-09T13:19:35;9.02;;;1.90;;
69081;SDS011;56184;51.986;5.760;2023-01-09T13:22:04;9.20;;;1.80;;
69081;SDS011;56184;51.986;5.760;2023-01-09T13:27:20;7.32;;;1.48;;
69081;SDS011;56184;51.986;5.760;2023-01-09T13:29:49;8.30;;;1.42;;
69081;SDS011;56184;51.986;5.760;2023-01-09T13:35:22;12.25;;;2.00;;
69081;SDS011;56184;51.986;5.760;2023-01-09T13:37:48;10.60;;;1.67;;
69081;SDS011;56184;51.986;5.760;2023-01-09T13:42:57;8.80;;;1.88;;
69081;SDS011;56184;51.986;5.760;2023-01-09T13:45:30;12.00;;;1.63;;
69081;SDS011;56184;51.986;5.760;2023-01-09T13:50:38;9.65;;;1.55;;
69081;SDS011;56184;51.986;5.760;2023-01-09T13:58:26;9.38;;;1.85;;
69081;SDS011;56184;51.986;5.760;2023-01-09T14:06:37;6.28;;;1.55;;
69081;SDS011;56184;51.986;5.760;2023-01-09T14:09:10;9.07;;;1.50;;
69081;SDS011;56184;51.986;5.760;2023-01-09T14:11:47;7.38;;;1.40;;
69081;SDS011;56184;51.986;5.760;2023-01-09T14:14:15;5.50;;;1.20;;
69081;SDS011;56184;51.986;5.760;2023-01-09T14:16:52;6.43;;;1.52;;
69081;SDS011;56184;51.986;5.760;2023-01-09T14:19:24;9.93;;;1.65;;
69081;SDS011;56184;51.986;5.760;2023-01-09T14:22:02;7.22;;;1.48;;
69081;SDS011;56184;51.986;5.760;2023-01-09T14:30:14;8.33;;;1.23;;
69081;SDS011;56184;51.986;5.760;2023-01-09T14:38:34;5.70;;;1.40;;
69081;SDS011;56184;51.986;5.760;2023-01-09T14:44:21;6.13;;;1.65;;
69081;SDS011;56184;51.986;5.760;2023-01-09T14:47:40;4.00;;;1.98;;
69081;SDS011;56184;51.986;5.760;2023-01-09T14:49:55;6.30;;;1.63;;
69081;SDS011;56184;51.986;5.760;2023-01-09T14:52:25;10.60;;;2.75;;
69081;SDS011;56184;51.986;5.760;2023-01-09T14:54:56;8.30;;;1.98;;
69081;SDS011;56184;51.986;5.760;2023-01-09T14:57:25;13.68;;;2.25;;
69081;SDS011;56184;51.986;5.760;2023-01-09T15:02:46;8.35;;;2.33;;
69081;SDS011;56184;51.986;5.760;2023-01-09T15:05:21;7.43;;;2.10;;
69081;SDS011;56184;51.986;5.760;2023-01-09T15:07:54;7.55;;;2.17;;
69081;SDS011;56184;51.986;5.760;2023-01-09T15:10:24;11.93;;;2.63;;
69081;SDS011;56184;51.986;5.760;2023-01-09T15:12:53;15.35;;;2.90;;
69081;SDS011;56184;51.986;5.760;2023-01-09T15:15:21;10.43;;;2.67;;
69081;SDS011;56184;51.986;5.760;2023-01-09T15:17:50;8.10;;;2.67;;
69081;SDS011;56184;51.986;5.760;2023-01-09T15:20:23;7.57;;;2.45;;
69081;SDS011;56184;51.986;5.760;2023-01-09T15:22:53;7.10;;;2.72;;
69081;SDS011;56184;51.986;5.760;2023-01-09T15:27:53;7.00;;;2.60;;
69081;SDS011;56184;51.986;5.760;2023-01-09T15:30:25;8.13;;;2.67;;
69081;SDS011;56184;51.986;5.760;2023-01-09T15:32:58;8.27;;;2.60;;
69081;SDS011;56184;51.986;5.760;2023-01-09T15:35:29;9.45;;;3.78;;
69081;SDS011;56184;51.986;5.760;2023-01-09T15:37:55;9.85;;;2.70;;
69081;SDS011;56184;51.986;5.760;2023-01-09T15:40:28;11.40;;;2.97;;
69081;SDS011;56184;51.986;5.760;2023-01-09T15:42:57;14.45;;;3.10;;
69081;SDS011;56184;51.986;5.760;2023-01-09T15:45:26;7.65;;;2.20;;
69081;SDS011;56184;51.986;5.760;2023-01-09T15:50:42;10.52;;;2.40;;
69081;SDS011;56184;51.986;5.760;2023-01-09T15:53:14;11.23;;;3.22;;
69081;SDS011;56184;51.986;5.760;2023-01-09T15:55:42;9.18;;;3.00;;
69081;SDS011;56184;51.986;5.760;2023-01-09T15:58:26;10.00;;;3.38;;
69081;SDS011;56184;51.986;5.760;2023-01-09T16:01:02;11.05;;;3.47;;
69081;SDS011;56184;51.986;5.760;2023-01-09T16:03:41;13.35;;;2.92;;
69081;SDS011;56184;51.986;5.760;2023-01-09T16:06:08;15.75;;;3.30;;
69081;SDS011;56184;51.986;5.760;2023-01-09T16:08:39;12.07;;;3.92;;
69081;SDS011;56184;51.986;5.760;2023-01-09T16:11:18;13.10;;;2.93;;
69081;SDS011;56184;51.986;5.760;2023-01-09T16:13:57;10.00;;;3.40;;
69081;SDS011;56184;51.986;5.760;2023-01-09T16:16:31;12.07;;;3.05;;
69081;SDS011;56184;51.986;5.760;2023-01-09T16:18:58;10.13;;;3.60;;
69081;SDS011;56184;51.986;5.760;2023-01-09T16:21:32;12.95;;;3.47;;
69081;SDS011;56184;51.986;5.760;2023-01-09T16:24:17;12.60;;;3.10;;
69081;SDS011;56184;51.986;5.760;2023-01-09T16:29:55;10.40;;;2.97;;
69081;SDS011;56184;51.986;5.760;2023-01-09T16:32:24;14.48;;;2.97;;
69081;SDS011;56184;51.986;5.760;2023-01-09T16:34:59;11.75;;;2.67;;
69081;SDS011;56184;51.986;5.760;2023-01-09T16:37:27;13.48;;;2.90;;
69081;SDS011;56184;51.986;5.760;2023-01-09T16:42:53;10.23;;;2.80;;
69081;SDS011;56184;51.986;5.760;2023-01-09T16:45:25;18.80;;;3.40;;
69081;SDS011;56184;51.986;5.760;2023-01-09T16:47:51;16.45;;;3.70;;
69081;SDS011;56184;51.986;5.760;2023-01-09T16:50:17;11.05;;;3.22;;
69081;SDS011;56184;51.986;5.760;2023-01-09T16:52:43;12.30;;;2.85;;
69081;SDS011;56184;51.986;5.760;2023-01-09T16:55:19;15.20;;;3.10;;
69081;SDS011;56184;51.986;5.760;2023-01-09T16:57:44;13.15;;;3.08;;
69081;SDS011;56184;51.986;5.760;2023-01-09T17:02:56;12.48;;;3.58;;
69081;SDS011;56184;51.986;5.760;2023-01-09T17:05:25;14.15;;;2.75;;
69081;SDS011;56184;51.986;5.760;2023-01-09T17:08:03;13.27;;;2.95;;
69081;SDS011;56184;51.986;5.760;2023-01-09T17:10:41;12.65;;;3.38;;
69081;SDS011;56184;51.986;5.760;2023-01-09T17:13:06;11.93;;;2.95;;
69081;SDS011;56184;51.986;5.760;2023-01-09T17:15:46;12.43;;;3.17;;
69081;SDS011;56184;51.986;5.760;2023-01-09T17:18:31;17.10;;;3.55;;
69081;SDS011;56184;51.986;5.760;2023-01-09T17:23:45;11.98;;;2.90;;
69081;SDS011;56184;51.986;5.760;2023-01-09T17:26:18;14.00;;;3.45;;
69081;SDS011;56184;51.986;5.760;2023-01-09T17:29:04;13.30;;;3.28;;
69081;SDS011;56184;51.986;5.760;2023-01-09T17:31:42;12.68;;;3.70;;
69081;SDS011;56184;51.986;5.760;2023-01-09T17:34:10;9.70;;;3.20;;
69081;SDS011;56184;51.986;5.760;2023-01-09T17:39:14;16.73;;;4.10;;
69081;SDS011;56184;51.986;5.760;2023-01-09T17:41:40;14.57;;;3.42;;
69081;SDS011;56184;51.986;5.760;2023-01-09T17:44:06;12.07;;;3.22;;
69081;SDS011;56184;51.986;5.760;2023-01-09T17:46:50;11.80;;;3.58;;
69081;SDS011;56184;51.986;5.760;2023-01-09T17:49:24;21.00;;;4.60;;
69081;SDS011;56184;51.986;5.760;2023-01-09T17:52:05;15.65;;;3.85;;
69081;SDS011;56184;51.986;5.760;2023-01-09T17:54:34;21.25;;;4.78;;
69081;SDS011;56184;51.986;5.760;2023-01-09T17:56:59;19.42;;;5.25;;
69081;SDS011;56184;51.986;5.760;2023-01-09T17:59:25;11.90;;;4.35;;
69081;SDS011;56184;51.986;5.760;2023-01-09T18:01:53;13.93;;;3.67;;
69081;SDS011;56184;51.986;5.760;2023-01-09T18:04:29;11.32;;;3.55;;
69081;SDS011;56184;51.986;5.760;2023-01-09T18:07:03;14.20;;;3.00;;
69081;SDS011;56184;51.986;5.760;2023-01-09T18:09:29;11.70;;;2.80;;